Time;durP1;ratioP1;P1;durP2;ratioP2;P2;SDS_P1;SDS_P2;PMS_P1;PMS_P2;Temp;Humidity;BMP_temperature;BMP_pressure;BME280_temperature;BME280_humidity;BME280_pressure;Samples;Min_cycle;Max_cycle;Signal;HPM_P1;HPM_P2
2022/08/28 00:02:10;;;;;;;4.00;1.90;;;22.00;51.50;;;;;;5017402;28;21161;-82
2022/08/28 00:04:36;;;;;;;2.70;1.67;;;22.00;51.60;;;;;;5032997;28;20034;-82
2022/08/28 00:07:03;;;;;;;3.22;1.85;;;22.00;51.60;;;;;;5033558;28;20033;-82
2022/08/28 00:09:28;;;;;;;3.20;2.00;;;21.90;51.70;;;;;;5020715;28;20484;-83
2022/08/28 00:11:55;;;;;;;3.55;1.83;;;21.90;51.70;;;;;;5022938;28;20029;-83
2022/08/28 00:14:22;;;;;;;3.60;1.92;;;21.90;51.70;;;;;;5042374;28;20061;-81
2022/08/28 00:16:49;;;;;;;3.10;1.83;;;21.80;51.70;;;;;;5040769;28;20052;-82
2022/08/28 00:19:17;;;;;;;4.43;2.10;;;21.80;51.80;;;;;;5008045;28;20445;-84
2022/08/28 00:21:44;;;;;;;3.10;1.83;;;21.80;51.80;;;;;;5034940;28;20033;-82
2022/08/28 00:24:12;;;;;;;3.08;1.77;;;21.80;51.80;;;;;;5016396;28;20044;-81
2022/08/28 00:29:22;;;;;;;3.57;1.90;;;21.70;51.80;;;;;;5021020;28;20469;-81
2022/08/28 00:31:48;;;;;;;2.75;1.83;;;21.70;51.80;;;;;;5032173;28;20298;-84
2022/08/28 00:34:14;;;;;;;2.30;1.58;;;21.60;51.90;;;;;;5029402;28;20120;-83
2022/08/28 00:36:41;;;;;;;3.67;1.95;;;21.60;52.00;;;;;;5029836;28;20140;-83
2022/08/28 00:39:07;;;;;;;3.03;1.80;;;21.60;52.00;;;;;;5028722;28;20500;-81
2022/08/28 00:41:35;;;;;;;3.28;1.70;;;21.60;52.00;;;;;;5026229;28;20044;-83
2022/08/28 00:44:17;;;;;;;3.83;1.75;;;21.50;52.10;;;;;;5028539;28;20028;-82
2022/08/28 00:46:45;;;;;;;3.25;1.80;;;21.50;52.10;;;;;;5042890;28;20030;-84
2022/08/28 00:49:14;;;;;;;4.10;2.20;;;21.50;52.10;;;;;;5028845;28;20083;-82
2022/08/28 00:54:27;;;;;;;2.28;1.27;;;21.40;52.20;;;;;;5027793;28;20029;-82
2022/08/28 00:56:53;;;;;;;2.70;1.75;;;21.40;52.20;;;;;;4993562;28;20168;-81
2022/08/28 00:59:25;;;;;;;3.15;1.83;;;21.40;52.30;;;;;;5024936;28;20033;-82
2022/08/28 01:01:55;;;;;;;2.85;1.65;;;21.30;52.20;;;;;;5027175;28;20034;-83
2022/08/28 01:04:23;;;;;;;2.80;1.67;;;21.30;52.30;;;;;;5028090;28;20121;-84
2022/08/28 01:06:52;;;;;;;2.53;1.55;;;21.30;52.30;;;;;;5025045;28;20025;-83
2022/08/28 01:09:28;;;;;;;2.75;1.65;;;21.20;52.30;;;;;;5025025;28;20041;-82
2022/08/28 01:12:01;;;;;;;2.67;1.67;;;21.20;52.40;;;;;;5027855;28;20021;-83
2022/08/28 01:14:29;;;;;;;2.75;1.58;;;21.20;52.40;;;;;;5044774;28;20079;-84
2022/08/28 01:16:56;;;;;;;3.65;1.80;;;21.20;52.50;;;;;;5040871;28;20025;-86
2022/08/28 01:19:36;;;;;;;3.67;1.92;;;21.20;52.60;;;;;;5009628;28;20337;-83
2022/08/28 01:22:24;;;;;;;2.20;1.60;;;21.10;52.60;;;;;;5025805;28;20025;-82
2022/08/28 01:24:52;;;;;;;2.95;1.83;;;21.00;52.60;;;;;;5017710;28;20123;-81
2022/08/28 01:27:19;;;;;;;2.85;1.70;;;21.10;52.60;;;;;;5028354;28;20033;-83
2022/08/28 01:29:44;;;;;;;2.72;1.73;;;21.00;52.60;;;;;;5031035;28;20392;-82
2022/08/28 01:32:10;;;;;;;3.55;1.83;;;21.00;52.60;;;;;;5008732;28;20041;-82
2022/08/28 01:34:36;;;;;;;2.78;1.50;;;21.00;52.70;;;;;;4996197;28;20061;-83
2022/08/28 01:37:02;;;;;;;2.78;1.60;;;21.00;52.70;;;;;;5012890;28;20048;-82
2022/08/28 01:39:28;;;;;;;3.05;1.77;;;20.90;52.70;;;;;;5013636;28;20444;-82
2022/08/28 01:41:55;;;;;;;3.47;1.90;;;20.90;52.80;;;;;;5027257;28;20029;-82
2022/08/28 01:44:24;;;;;;;3.10;1.85;;;20.90;52.80;;;;;;5028462;28;20048;-82
2022/08/28 01:46:56;;;;;;;2.78;1.63;;;20.90;52.90;;;;;;5011006;28;20386;-82
2022/08/28 01:49:23;;;;;;;2.35;1.60;;;20.80;52.90;;;;;;5027199;28;20057;-81
2022/08/28 01:51:49;;;;;;;2.33;1.40;;;20.80;52.90;;;;;;5028327;28;20027;-82
2022/08/28 01:54:15;;;;;;;3.03;1.70;;;20.80;53.00;;;;;;5013046;28;20044;-81
2022/08/28 01:56:43;;;;;;;3.10;1.80;;;20.80;53.00;;;;;;5009328;28;20069;-82
2022/08/28 01:59:11;;;;;;;2.25;1.58;;;20.70;53.00;;;;;;5042027;28;20029;-82
2022/08/28 02:01:37;;;;;;;2.15;1.40;;;20.70;53.00;;;;;;5024700;28;20462;-83
2022/08/28 02:04:03;;;;;;;2.42;1.60;;;20.70;53.10;;;;;;5011515;28;20122;-84
2022/08/28 02:06:30;;;;;;;2.40;1.60;;;20.70;53.10;;;;;;5006212;28;20024;-82
2022/08/28 02:08:57;;;;;;;3.45;1.90;;;20.60;53.10;;;;;;5026985;28;20041;-82
2022/08/28 02:11:23;;;;;;;3.25;1.90;;;20.60;53.20;;;;;;5026592;28;20049;-81
2022/08/28 02:13:50;;;;;;;2.40;1.55;;;20.60;53.20;;;;;;5029447;28;20128;-82
2022/08/28 02:16:17;;;;;;;2.28;1.40;;;20.60;53.20;;;;;;5010749;28;20030;-82
2022/08/28 02:18:42;;;;;;;2.58;1.60;;;20.50;53.20;;;;;;5010695;28;20037;-83
2022/08/28 02:21:09;;;;;;;2.65;1.65;;;20.50;53.30;;;;;;5027155;28;20025;-83
2022/08/28 02:23:41;;;;;;;2.88;1.70;;;20.50;53.30;;;;;;5031828;28;20024;-81
2022/08/28 02:26:07;;;;;;;3.42;1.80;;;20.50;53.40;;;;;;5028519;28;20021;-83
2022/08/28 02:28:33;;;;;;;2.65;1.60;;;20.50;53.40;;;;;;5011775;28;20466;-81
2022/08/28 02:30:58;;;;;;;3.50;1.60;;;20.40;53.40;;;;;;5028189;28;20097;-85
2022/08/28 02:33:24;;;;;;;1.83;1.30;;;20.40;53.40;;;;;;5013284;28;20041;-81
2022/08/28 02:35:50;;;;;;;3.80;1.80;;;20.40;53.40;;;;;;5025349;28;20499;-82
2022/08/28 02:38:16;;;;;;;2.45;1.45;;;20.40;53.50;;;;;;5032154;28;20120;-81
2022/08/28 02:40:42;;;;;;;2.60;1.40;;;20.30;53.50;;;;;;5001379;28;20362;-82
2022/08/28 02:43:08;;;;;;;1.90;1.30;;;20.30;53.50;;;;;;5019489;28;20033;-81
2022/08/28 02:45:34;;;;;;;3.20;1.60;;;20.30;53.50;;;;;;5031702;28;20120;-83
2022/08/28 02:48:01;;;;;;;2.03;1.33;;;20.30;53.60;;;;;;5015070;28;20348;-83
2022/08/28 02:50:30;;;;;;;2.67;1.63;;;20.20;53.60;;;;;;5030784;28;20022;-82
2022/08/28 02:52:56;;;;;;;3.15;1.42;;;20.20;53.70;;;;;;5027091;28;20083;-82
2022/08/28 02:55:23;;;;;;;2.55;1.60;;;20.20;53.70;;;;;;4996239;28;20029;-82
2022/08/28 02:57:50;;;;;;;2.15;1.50;;;20.20;53.70;;;;;;5011903;28;20156;-83
2022/08/28 03:00:20;;;;;;;3.08;1.60;;;20.20;53.70;;;;;;5030011;28;20101;-82
2022/08/28 03:02:47;;;;;;;2.35;1.50;;;20.10;53.80;;;;;;5033687;28;20045;-81
2022/08/28 03:05:16;;;;;;;3.10;1.50;;;20.10;53.80;;;;;;5035525;28;20111;-82
2022/08/28 03:07:42;;;;;;;1.83;1.33;;;20.10;53.90;;;;;;5031218;28;20640;-82
2022/08/28 03:10:09;;;;;;;2.63;1.60;;;20.10;53.90;;;;;;5030351;28;20462;-82
2022/08/28 03:12:35;;;;;;;3.28;1.40;;;20.10;54.00;;;;;;5046250;28;20084;-83
2022/08/28 03:15:01;;;;;;;3.58;2.00;;;20.00;53.90;;;;;;5016541;28;20041;-82
2022/08/28 03:17:27;;;;;;;2.47;1.60;;;20.00;53.90;;;;;;5031576;28;20018;-83
2022/08/28 03:19:53;;;;;;;1.63;1.35;;;20.00;54.00;;;;;;5031407;28;20547;-83
2022/08/28 03:23:24;;;;;;;1.83;1.40;;;20.00;54.00;;;;;;4997125;28;20029;-82
2022/08/28 03:25:06;;;;;;;3.55;2.03;;;20.00;54.10;;;;;;5024508;28;20092;-82
2022/08/28 03:27:32;;;;;;;2.30;1.50;;;19.90;54.00;;;;;;5043062;28;20068;-83
2022/08/28 03:29:58;;;;;;;2.47;1.40;;;19.90;54.10;;;;;;5030655;28;20084;-82
2022/08/28 03:32:25;;;;;;;2.00;1.33;;;19.90;54.10;;;;;;5020146;28;20056;-82
2022/08/28 03:34:52;;;;;;;2.95;1.40;;;19.90;54.20;;;;;;5030902;28;20493;-81
2022/08/28 03:37:18;;;;;;;2.15;1.50;;;19.80;54.10;;;;;;5033994;28;20049;-81
2022/08/28 03:39:44;;;;;;;2.80;1.33;;;19.80;54.20;;;;;;5028310;28;20042;-82
2022/08/28 03:42:11;;;;;;;2.13;1.50;;;19.80;54.20;;;;;;5015113;28;20072;-81
2022/08/28 03:44:38;;;;;;;2.45;1.50;;;19.80;54.20;;;;;;5031282;28;20048;-83
2022/08/28 03:47:04;;;;;;;2.67;1.50;;;19.80;54.30;;;;;;5029775;28;20053;-82
2022/08/28 03:49:30;;;;;;;2.65;1.48;;;19.70;54.30;;;;;;5010541;28;20045;-82
2022/08/28 03:51:56;;;;;;;2.38;1.50;;;19.80;54.30;;;;;;4996678;28;20091;-84
2022/08/28 03:54:22;;;;;;;2.35;1.50;;;19.70;54.40;;;;;;5011159;28;20041;-84
2022/08/28 03:56:48;;;;;;;2.25;1.33;;;19.70;54.50;;;;;;5028543;28;20136;-83
2022/08/28 03:59:14;;;;;;;2.80;1.48;;;19.70;54.50;;;;;;5009524;28;20538;-82
2022/08/28 04:01:40;;;;;;;2.60;1.63;;;19.60;54.40;;;;;;5028499;28;20034;-84
2022/08/28 04:04:06;;;;;;;3.38;1.50;;;19.60;54.50;;;;;;4993072;28;20436;-84
2022/08/28 04:06:32;;;;;;;1.98;1.27;;;19.60;54.50;;;;;;5011647;28;20036;-82
2022/08/28 04:08:58;;;;;;;2.13;1.50;;;19.60;54.50;;;;;;4998479;28;20434;-82
2022/08/28 04:11:23;;;;;;;2.45;1.70;;;19.60;54.50;;;;;;5031571;28;20029;-82
2022/08/28 04:13:49;;;;;;;2.05;1.50;;;19.60;54.60;;;;;;4998759;28;20099;-82
2022/08/28 04:16:18;;;;;;;2.10;1.50;;;19.50;54.50;;;;;;5033311;28;20044;-82
2022/08/28 04:18:47;;;;;;;2.65;1.42;;;19.50;54.60;;;;;;5032374;28;20037;-82
2022/08/28 04:21:16;;;;;;;2.50;1.45;;;19.50;54.60;;;;;;5033594;28;20024;-82
2022/08/28 04:23:43;;;;;;;2.03;1.42;;;19.40;54.60;;;;;;5030659;28;20018;-82
2022/08/28 04:26:12;;;;;;;2.00;1.30;;;19.50;54.70;;;;;;5014579;28;20025;-83
2022/08/28 04:28:38;;;;;;;2.45;1.35;;;19.40;54.70;;;;;;5033318;28;20029;-82
2022/08/28 04:31:04;;;;;;;2.50;1.30;;;19.40;54.70;;;;;;4998285;28;20059;-83
2022/08/28 04:33:30;;;;;;;3.00;1.65;;;19.40;54.70;;;;;;5031581;28;20103;-83
2022/08/28 04:35:56;;;;;;;1.73;1.35;;;19.40;54.80;;;;;;5029917;28;20087;-83
2022/08/28 04:38:22;;;;;;;2.40;1.30;;;19.40;54.80;;;;;;5025603;28;20058;-82
2022/08/28 04:40:48;;;;;;;2.17;1.38;;;19.30;54.80;;;;;;4996029;28;20462;-82
2022/08/28 04:43:14;;;;;;;2.17;1.50;;;19.30;54.80;;;;;;5013259;28;20044;-82
2022/08/28 04:45:44;;;;;;;2.47;1.52;;;19.30;54.80;;;;;;5011372;28;20083;-83
2022/08/28 04:48:11;;;;;;;2.75;1.40;;;19.30;54.90;;;;;;5025612;28;20033;-82
2022/08/28 04:50:41;;;;;;;2.17;1.50;;;19.20;54.90;;;;;;5015067;28;20474;-82
2022/08/28 04:53:07;;;;;;;2.33;1.60;;;19.20;54.90;;;;;;5028300;28;20029;-82
2022/08/28 04:55:32;;;;;;;1.98;1.60;;;19.20;54.90;;;;;;5030928;28;21885;-82
2022/08/28 04:57:58;;;;;;;2.70;1.50;;;19.20;54.90;;;;;;5028350;28;20437;-82
2022/08/28 05:00:24;;;;;;;2.10;1.40;;;19.20;55.00;;;;;;5010942;28;20045;-83
2022/08/28 05:02:50;;;;;;;2.28;1.50;;;19.20;55.10;;;;;;5026179;28;20383;-83
2022/08/28 05:05:15;;;;;;;3.33;1.50;;;19.20;55.10;;;;;;5025503;28;20478;-83
2022/08/28 05:07:41;;;;;;;2.42;1.63;;;19.10;55.00;;;;;;5024760;28;20072;-82
2022/08/28 05:10:07;;;;;;;1.42;1.23;;;19.10;55.10;;;;;;5027043;28;20079;-82
2022/08/28 05:12:35;;;;;;;1.88;1.20;;;19.10;55.10;;;;;;5029978;28;20037;-83
2022/08/28 05:15:01;;;;;;;2.08;1.40;;;19.10;55.10;;;;;;5028564;28;20041;-82
2022/08/28 05:17:27;;;;;;;2.50;1.40;;;19.10;55.20;;;;;;5009890;28;20033;-83
2022/08/28 05:19:53;;;;;;;2.13;1.38;;;19.10;55.20;;;;;;5013344;28;20065;-82
2022/08/28 05:22:19;;;;;;;2.65;1.40;;;19.00;55.20;;;;;;5027755;28;20033;-82
2022/08/28 05:24:44;;;;;;;1.80;1.30;;;19.00;55.20;;;;;;5029885;28;20095;-82
2022/08/28 05:27:10;;;;;;;1.98;1.55;;;19.00;55.20;;;;;;5029059;28;20029;-83
2022/08/28 05:29:36;;;;;;;1.83;1.23;;;19.00;55.30;;;;;;5025609;28;20433;-82
2022/08/28 05:32:02;;;;;;;1.58;1.30;;;19.00;55.30;;;;;;5012036;28;20040;-83
2022/08/28 05:34:28;;;;;;;2.25;1.48;;;19.00;55.30;;;;;;5030358;28;20025;-82
2022/08/28 05:36:54;;;;;;;1.75;1.30;;;18.90;55.30;;;;;;4997510;28;20076;-82
2022/08/28 05:39:20;;;;;;;1.98;1.40;;;18.90;55.30;;;;;;5011840;28;20045;-82
2022/08/28 05:41:46;;;;;;;1.88;1.20;;;19.00;55.30;;;;;;4994381;28;20478;-82
2022/08/28 05:44:14;;;;;;;2.40;1.35;;;18.90;55.30;;;;;;5012268;28;20065;-82
2022/08/28 05:46:43;;;;;;;1.60;1.33;;;18.90;55.40;;;;;;5023137;28;20029;-82
2022/08/28 05:49:09;;;;;;;2.70;1.52;;;18.90;55.40;;;;;;5027972;28;20029;-85
2022/08/28 05:51:35;;;;;;;2.80;1.60;;;18.90;55.40;;;;;;5027866;28;20044;-83
2022/08/28 05:54:02;;;;;;;2.15;1.60;;;18.90;55.50;;;;;;5029351;28;20029;-82
2022/08/28 05:56:31;;;;;;;2.55;1.33;;;18.90;55.50;;;;;;5029016;28;20029;-82
2022/08/28 05:59:00;;;;;;;2.35;1.20;;;18.80;55.50;;;;;;5014143;28;20103;-82
2022/08/28 06:01:28;;;;;;;2.25;1.42;;;18.90;55.60;;;;;;5031651;28;20108;-81
2022/08/28 06:04:00;;;;;;;2.15;1.33;;;18.90;55.60;;;;;;5027178;28;20029;-82
2022/08/28 06:06:28;;;;;;;2.50;1.30;;;18.80;55.60;;;;;;5032325;28;20029;-81
2022/08/28 06:09:00;;;;;;;2.67;1.30;;;18.80;55.60;;;;;;5030750;28;20013;-83
2022/08/28 06:11:27;;;;;;;2.78;1.40;;;18.90;55.70;;;;;;5027507;28;20030;-82
2022/08/28 06:13:53;;;;;;;2.72;1.55;;;18.80;55.70;;;;;;5034728;28;20061;-83
2022/08/28 06:16:19;;;;;;;3.70;1.58;;;18.80;55.60;;;;;;5004690;28;20120;-82
2022/08/28 06:18:45;;;;;;;2.45;1.40;;;18.80;55.70;;;;;;5034546;28;20041;-81
2022/08/28 06:21:11;;;;;;;2.40;1.42;;;18.80;55.70;;;;;;5033991;28;20079;-82
2022/08/28 06:23:37;;;;;;;2.40;1.40;;;18.80;55.70;;;;;;5031332;28;20021;-83
2022/08/28 06:26:04;;;;;;;1.95;1.50;;;18.80;55.80;;;;;;5034880;28;20030;-82
2022/08/28 06:28:31;;;;;;;2.58;1.48;;;18.80;55.80;;;;;;5016485;28;20083;-82
2022/08/28 06:31:00;;;;;;;1.60;1.17;;;18.80;55.90;;;;;;5035989;28;20528;-80
2022/08/28 06:33:25;;;;;;;2.10;1.50;;;18.80;55.90;;;;;;5031552;28;20116;-80
2022/08/28 06:35:53;;;;;;;2.22;1.50;;;18.80;56.00;;;;;;5030341;28;20116;-79
2022/08/28 06:38:22;;;;;;;1.85;1.45;;;18.80;56.00;;;;;;5033255;28;20045;-80
2022/08/28 06:40:53;;;;;;;2.28;1.33;;;18.80;56.10;;;;;;5031381;28;20373;-80
2022/08/28 06:43:21;;;;;;;1.45;1.27;;;18.80;56.10;;;;;;5032941;28;20056;-81
2022/08/28 06:45:53;;;;;;;2.83;1.70;;;18.80;56.10;;;;;;5034219;28;20028;-83
2022/08/28 06:48:21;;;;;;;3.22;1.30;;;18.80;56.10;;;;;;5039145;28;20037;-84
2022/08/28 06:50:49;;;;;;;2.65;1.35;;;18.80;56.20;;;;;;5027248;28;20033;-84
2022/08/28 06:53:18;;;;;;;1.42;1.20;;;18.80;56.30;;;;;;5031964;28;20033;-86
2022/08/28 06:55:44;;;;;;;2.38;1.40;;;18.80;56.30;;;;;;5027757;28;20085;-83
2022/08/28 06:58:11;;;;;;;1.65;1.25;;;18.80;56.30;;;;;;5014318;28;20045;-86
2022/08/28 07:00:37;;;;;;;3.28;1.63;;;18.80;56.30;;;;;;5005722;28;20034;-85
2022/08/28 07:03:06;;;;;;;1.70;1.10;;;18.80;56.30;;;;;;5029273;28;20040;-83
2022/08/28 07:05:32;;;;;;;3.78;1.70;;;18.80;56.40;;;;;;5030473;28;20021;-84
2022/08/28 07:07:59;;;;;;;1.67;1.30;;;18.80;56.50;;;;;;5017309;28;20036;-84
2022/08/28 07:10:28;;;;;;;2.42;1.67;;;18.90;56.60;;;;;;5016885;28;20021;-84
2022/08/28 07:12:54;;;;;;;3.13;1.73;;;18.90;56.60;;;;;;5030075;28;20057;-84
2022/08/28 07:15:20;;;;;;;2.25;1.33;;;18.90;56.50;;;;;;5017576;28;20478;-86
2022/08/28 07:17:46;;;;;;;1.83;1.20;;;18.90;56.50;;;;;;5015717;28;20361;-83
2022/08/28 07:20:11;;;;;;;1.67;1.33;;;18.90;56.50;;;;;;4995952;28;20029;-84
2022/08/28 07:22:41;;;;;;;1.67;1.20;;;18.90;56.60;;;;;;5009519;28;20029;-83
2022/08/28 07:25:08;;;;;;;2.67;1.40;;;19.00;56.70;;;;;;5025884;28;20036;-82
2022/08/28 07:27:35;;;;;;;1.88;1.27;;;18.90;56.70;;;;;;5030526;28;20026;-84
2022/08/28 07:30:00;;;;;;;1.63;1.40;;;18.90;56.70;;;;;;5030193;28;20057;-84
2022/08/28 07:32:27;;;;;;;1.70;1.17;;;18.90;56.70;;;;;;5015862;28;20089;-85
2022/08/28 07:34:55;;;;;;;2.42;1.38;;;19.00;56.70;;;;;;5032134;28;20033;-84
2022/08/28 07:37:20;;;;;;;3.00;1.30;;;19.00;56.80;;;;;;5028049;28;20108;-85
2022/08/28 07:39:46;;;;;;;2.70;1.48;;;19.00;56.70;;;;;;5014431;28;20029;-84
2022/08/28 07:44:47;;;;;;;2.47;1.50;;;19.00;56.70;;;;;;5030602;28;20389;-83
2022/08/28 07:44:58;;;;;;;1.67;1.27;;;19.00;56.80;;;;;;5019691;28;20041;-82
2022/08/28 07:47:32;;;;;;;1.70;1.30;;;19.00;56.70;;;;;;5011980;28;20479;-83
2022/08/28 07:50:01;;;;;;;1.85;1.17;;;19.00;57.40;;;;;;5029865;28;20045;-84
2022/08/28 07:52:28;;;;;;;3.03;1.40;;;19.10;56.80;;;;;;5016926;28;20484;-84
2022/08/28 07:54:55;;;;;;;1.70;1.27;;;19.10;56.80;;;;;;5031485;28;20025;-84
2022/08/28 07:57:20;;;;;;;1.73;1.25;;;19.10;56.80;;;;;;5031646;28;20083;-83
2022/08/28 07:59:47;;;;;;;1.88;1.20;;;19.10;56.80;;;;;;4997726;28;20041;-84
2022/08/28 08:02:13;;;;;;;1.65;1.30;;;19.10;56.80;;;;;;5032393;28;20025;-84
2022/08/28 08:04:39;;;;;;;2.08;1.20;;;19.20;56.90;;;;;;5032463;28;20033;-84
2022/08/28 08:07:07;;;;;;;2.05;1.38;;;19.10;56.80;;;;;;5029632;28;20104;-85
2022/08/28 08:09:37;;;;;;;2.40;1.20;;;19.20;56.80;;;;;;5030158;28;20120;-85
2022/08/28 08:12:04;;;;;;;3.20;1.30;;;19.20;56.90;;;;;;5028768;28;20140;-83
2022/08/28 08:14:30;;;;;;;1.55;1.10;;;19.30;56.80;;;;;;5031591;28;20033;-83
2022/08/28 08:17:00;;;;;;;1.60;1.23;;;19.30;56.80;;;;;;5035304;28;20542;-83
2022/08/28 08:19:26;;;;;;;2.15;1.13;;;19.30;56.90;;;;;;5030438;28;20454;-84
2022/08/28 08:21:52;;;;;;;3.22;1.38;;;19.30;56.80;;;;;;5029133;28;20466;-84
2022/08/28 08:24:24;;;;;;;2.15;1.25;;;19.40;56.80;;;;;;5027687;28;20029;-85
2022/08/28 08:26:52;;;;;;;2.10;1.38;;;19.40;56.70;;;;;;5024775;28;20029;-85
2022/08/28 08:29:18;;;;;;;1.27;1.08;;;19.40;56.70;;;;;;5034042;28;20120;-84
2022/08/28 08:31:44;;;;;;;2.08;1.30;;;19.50;56.70;;;;;;5029421;28;20021;-84
2022/08/28 08:34:10;;;;;;;3.15;1.33;;;19.50;56.60;;;;;;5029351;28;20032;-84
2022/08/28 08:36:37;;;;;;;1.90;1.23;;;19.60;56.60;;;;;;5014731;28;20029;-84
2022/08/28 08:39:06;;;;;;;2.20;1.20;;;19.60;56.50;;;;;;5031742;28;20041;-85
2022/08/28 08:41:46;;;;;;;1.60;1.20;;;19.70;56.50;;;;;;5033284;28;20052;-85
2022/08/28 08:44:30;;;;;;;2.47;1.17;;;19.70;56.40;;;;;;5025019;28;20033;-85
2022/08/28 08:47:02;;;;;;;1.33;1.02;;;19.80;56.30;;;;;;5044441;28;20048;-84
2022/08/28 08:49:35;;;;;;;1.15;1.05;;;19.80;56.10;;;;;;5032223;28;20040;-85
2022/08/28 08:52:16;;;;;;;2.63;1.42;;;19.90;56.10;;;;;;5034895;28;20029;-85
2022/08/28 08:54:43;;;;;;;1.52;1.02;;;20.00;56.00;;;;;;5029700;28;20061;-85
2022/08/28 08:57:13;;;;;;;1.58;1.08;;;20.10;55.90;;;;;;5030246;28;20025;-84
2022/08/28 08:59:39;;;;;;;1.50;1.00;;;20.10;55.90;;;;;;5009147;28;20470;-84
2022/08/28 09:02:12;;;;;;;2.25;1.27;;;20.20;55.80;;;;;;4993620;28;20034;-85
2022/08/28 09:04:53;;;;;;;1.33;1.10;;;20.30;55.80;;;;;;5027370;28;20056;-84
2022/08/28 09:07:36;;;;;;;1.17;0.90;;;20.30;55.60;;;;;;5027813;28;20025;-84
2022/08/28 09:10:05;;;;;;;1.23;1.10;;;20.40;55.50;;;;;;5043223;28;20036;-85
2022/08/28 09:12:59;;;;;;;2.13;0.93;;;20.60;55.50;;;;;;5025319;28;20032;-83
2022/08/28 09:15:37;;;;;;;2.20;1.00;;;20.60;55.40;;;;;;5039154;28;20021;-84
2022/08/28 09:18:19;;;;;;;1.65;1.00;;;20.70;55.30;;;;;;5029163;28;20539;-85
2022/08/28 09:20:54;;;;;;;2.10;1.05;;;20.80;55.20;;;;;;5028689;28;20025;-85
2022/08/28 09:23:26;;;;;;;1.88;1.10;;;20.90;55.10;;;;;;5012228;28;20117;-85
2022/08/28 09:25:56;;;;;;;1.30;0.95;;;21.00;55.10;;;;;;5024832;28;20028;-84
2022/08/28 09:28:35;;;;;;;1.35;0.98;;;21.00;55.00;;;;;;5027471;28;20025;-85
2022/08/28 09:31:06;;;;;;;1.20;1.00;;;21.10;54.90;;;;;;5044608;28;20036;-84
2022/08/28 09:33:37;;;;;;;1.65;1.02;;;21.20;54.90;;;;;;5029203;28;20049;-84
2022/08/28 09:36:33;;;;;;;1.52;1.02;;;21.30;54.80;;;;;;5027448;28;20076;-85
2022/08/28 09:39:17;;;;;;;1.40;0.93;;;21.40;55.00;;;;;;5028826;28;20080;-83
2022/08/28 09:44:49;;;;;;;1.42;1.00;;;21.60;54.70;;;;;;5029868;28;20504;-83
2022/08/28 09:47:40;;;;;;;1.67;1.00;;;21.70;54.60;;;;;;5022211;28;20129;-83
2022/08/28 09:50:20;;;;;;;0.77;0.77;;;21.80;54.60;;;;;;5043369;28;20404;-82
2022/08/28 09:52:47;;;;;;;1.98;1.20;;;21.80;54.50;;;;;;5024128;28;20113;-82
2022/08/28 09:55:43;;;;;;;1.95;0.88;;;21.90;54.30;;;;;;5009900;28;20544;-83
2022/08/28 09:58:09;;;;;;;1.35;0.90;;;22.00;54.40;;;;;;5035155;28;20502;-82
2022/08/28 10:00:42;;;;;;;1.15;0.88;;;22.20;54.20;;;;;;4994162;28;20033;-82
2022/08/28 10:03:14;;;;;;;1.85;1.05;;;22.20;54.10;;;;;;5026764;28;20022;-82
2022/08/28 10:05:57;;;;;;;1.88;1.02;;;22.30;54.00;;;;;;5043693;28;20109;-83
2022/08/28 10:08:52;;;;;;;0.80;0.80;;;22.40;53.90;;;;;;5025464;28;20044;-82
2022/08/28 10:11:40;;;;;;;2.28;0.95;;;22.50;53.80;;;;;;5043144;28;20039;-83
2022/08/28 10:14:27;;;;;;;1.15;0.90;;;22.60;53.70;;;;;;5028648;28;20147;-82
2022/08/28 10:17:18;;;;;;;1.40;1.10;;;22.70;53.60;;;;;;5039295;28;20381;-82
2022/08/28 10:19:53;;;;;;;1.23;0.95;;;22.80;53.50;;;;;;5025501;28;20053;-81
2022/08/28 10:22:46;;;;;;;1.45;1.00;;;22.90;53.40;;;;;;5026901;28;20037;-82
2022/08/28 10:25:18;;;;;;;1.92;1.00;;;23.00;53.40;;;;;;5040297;28;20099;-82
2022/08/28 10:28:24;;;;;;;2.20;1.00;;;23.10;53.30;;;;;;5031612;28;20025;-82
2022/08/28 10:31:35;;;;;;;2.05;0.82;;;23.10;53.40;;;;;;5014859;28;20100;-82
2022/08/28 10:34:19;;;;;;;1.25;0.77;;;23.30;53.30;;;;;;5025896;28;20045;-82
2022/08/28 10:36:56;;;;;;;1.10;0.83;;;23.40;53.10;;;;;;5029947;28;20034;-83
2022/08/28 10:39:50;;;;;;;1.20;0.95;;;23.50;53.00;;;;;;5026758;28;20128;-82
2022/08/28 10:42:25;;;;;;;0.80;0.70;;;23.60;53.20;;;;;;5028413;28;20120;-82
2022/08/28 10:45:03;;;;;;;1.38;0.82;;;23.60;53.00;;;;;;5028165;28;20049;-83
2022/08/28 10:47:36;;;;;;;1.10;0.95;;;23.70;53.60;;;;;;5027311;28;20068;-82
2022/08/28 10:50:36;;;;;;;1.40;0.90;;;23.80;52.90;;;;;;5024542;28;20029;-83
2022/08/28 10:53:07;;;;;;;1.23;0.95;;;23.80;53.00;;;;;;5026958;28;20045;-83
2022/08/28 10:55:43;;;;;;;1.52;1.00;;;23.90;52.80;;;;;;5026725;28;20436;-83
2022/08/28 10:58:10;;;;;;;1.17;0.85;;;24.00;52.90;;;;;;5029193;28;20048;-83
2022/08/28 11:00:38;;;;;;;1.63;1.00;;;24.00;52.80;;;;;;5000794;28;20021;-82
2022/08/28 11:03:11;;;;;;;0.80;0.80;;;24.10;52.80;;;;;;5031247;28;20033;-82
2022/08/28 11:05:47;;;;;;;1.50;0.85;;;24.20;52.80;;;;;;5045889;28;20053;-82
2022/08/28 11:08:31;;;;;;;1.88;1.10;;;24.20;52.70;;;;;;5031438;28;20032;-83
2022/08/28 11:11:03;;;;;;;1.60;0.82;;;24.20;52.80;;;;;;5032424;28;20022;-83
2022/08/28 11:13:47;;;;;;;1.55;1.10;;;24.30;52.70;;;;;;5034063;28;20026;-82
2022/08/28 11:16:35;;;;;;;1.43;1.00;;;24.30;52.70;;;;;;5026227;28;20381;-83
2022/08/28 11:19:26;;;;;;;1.45;1.10;;;24.40;52.70;;;;;;5033764;28;20044;-82
2022/08/28 11:21:54;;;;;;;1.55;1.20;;;24.40;52.60;;;;;;5027155;28;20024;-83
2022/08/28 11:24:42;;;;;;;2.03;1.13;;;24.40;52.60;;;;;;5033840;28;20446;-81
2022/08/28 11:27:31;;;;;;;1.20;1.00;;;24.50;52.70;;;;;;5031641;28;20057;-82
2022/08/28 11:30:30;;;;;;;1.15;0.88;;;24.50;52.70;;;;;;5031789;28;20033;-82
2022/08/28 11:33:02;;;;;;;0.75;0.75;;;24.60;52.80;;;;;;5041456;28;20034;-82
2022/08/28 11:35:48;;;;;;;1.23;0.90;;;24.60;52.70;;;;;;5032083;28;20060;-82
2022/08/28 11:38:39;;;;;;;1.52;0.90;;;24.70;52.90;;;;;;5030056;28;20096;-81
2022/08/28 11:41:37;;;;;;;1.80;1.00;;;24.70;52.90;;;;;;5032032;28;20095;-82
2022/08/28 11:44:11;;;;;;;1.20;1.00;;;24.80;52.80;;;;;;5007843;28;20091;-83
2022/08/28 11:46:42;;;;;;;1.02;0.80;;;24.80;52.50;;;;;;5032522;28;20052;-83
2022/08/28 11:49:25;;;;;;;1.02;0.93;;;24.80;52.40;;;;;;5032200;28;20030;-82
2022/08/28 11:52:06;;;;;;;1.38;0.80;;;24.80;52.50;;;;;;5033668;28;20034;-82
2022/08/28 11:55:04;;;;;;;1.17;0.80;;;24.90;52.40;;;;;;5031468;28;20492;-83
2022/08/28 11:57:44;;;;;;;1.85;0.98;;;24.90;52.40;;;;;;5023827;28;20057;-82
2022/08/28 12:00:20;;;;;;;1.98;1.08;;;25.00;52.30;;;;;;5015080;28;20041;-82
2022/08/28 12:03:07;;;;;;;2.10;1.15;;;25.00;52.40;;;;;;5032155;28;20179;-82
2022/08/28 12:05:33;;;;;;;2.20;1.00;;;25.10;52.20;;;;;;5032597;28;20087;-83
2022/08/28 12:08:01;;;;;;;0.88;0.85;;;25.10;52.00;;;;;;5013656;28;20549;-83
2022/08/28 12:10:28;;;;;;;0.90;0.90;;;25.10;51.90;;;;;;5030352;28;20022;-83
2022/08/28 12:13:00;;;;;;;1.77;0.98;;;25.10;51.80;;;;;;5031291;28;20028;-83
2022/08/28 12:15:28;;;;;;;1.95;0.90;;;25.20;51.90;;;;;;5032117;28;20025;-83
2022/08/28 12:18:03;;;;;;;0.90;0.88;;;25.20;51.80;;;;;;5033708;28;20024;-82
2022/08/28 12:21:04;;;;;;;1.30;1.00;;;25.20;51.70;;;;;;5030270;28;20026;-83
2022/08/28 12:24:00;;;;;;;1.98;0.82;;;25.30;51.80;;;;;;4997878;28;20029;-83
2022/08/28 12:26:28;;;;;;;1.02;0.85;;;25.30;51.70;;;;;;5027597;28;20083;-82
2022/08/28 12:28:54;;;;;;;0.80;0.80;;;25.40;51.70;;;;;;5029150;28;20025;-83
2022/08/28 12:32:10;;;;;;;0.80;0.80;;;25.40;51.70;;;;;;5027775;28;20079;-82
2022/08/28 12:34:30;;;;;;;0.80;0.80;;;25.40;51.50;;;;;;5030117;28;20470;-83
2022/08/28 12:36:59;;;;;;;1.15;0.80;;;25.40;51.50;;;;;;5047838;28;20496;-82
2022/08/28 12:39:27;;;;;;;1.60;1.05;;;25.50;51.40;;;;;;5031062;28;20034;-83
2022/08/28 12:41:53;;;;;;;1.15;0.82;;;25.40;51.30;;;;;;5013768;28;20465;-82
2022/08/28 12:44:29;;;;;;;1.90;1.10;;;25.50;51.20;;;;;;5031537;28;20025;-83
2022/08/28 12:46:55;;;;;;;1.13;0.93;;;25.50;51.20;;;;;;5030722;28;20032;-83
2022/08/28 12:49:28;;;;;;;1.55;1.02;;;25.50;51.10;;;;;;5032193;28;20075;-82
2022/08/28 12:52:14;;;;;;;2.08;1.05;;;25.60;51.20;;;;;;5031817;28;20527;-82
2022/08/28 12:54:40;;;;;;;1.17;0.93;;;25.60;51.10;;;;;;5021729;28;20095;-83
2022/08/28 12:57:10;;;;;;;1.10;0.80;;;25.60;50.90;;;;;;5031368;28;20014;-82
2022/08/28 12:59:39;;;;;;;1.00;0.90;;;25.60;50.70;;;;;;5029021;28;20061;-83
2022/08/28 13:02:32;;;;;;;1.10;0.98;;;25.70;50.60;;;;;;5006951;28;20477;-84
2022/08/28 13:05:05;;;;;;;1.02;0.93;;;25.70;50.50;;;;;;5017257;28;20091;-84
2022/08/28 13:07:36;;;;;;;1.95;1.00;;;25.70;50.20;;;;;;5025896;28;20037;-86
2022/08/28 13:10:18;;;;;;;1.33;1.05;;;25.70;50.20;;;;;;5010710;28;20037;-86
2022/08/28 13:12:50;;;;;;;1.27;1.00;;;25.70;50.20;;;;;;5013315;28;20014;-85
2022/08/28 13:15:43;;;;;;;1.15;1.05;;;25.80;50.30;;;;;;5043695;28;20106;-83
2022/08/28 13:18:09;;;;;;;2.03;0.93;;;25.80;50.30;;;;;;5009623;28;20539;-87